sensor_id;sensor_type;location;lat;lon;timestamp;temperature;humidity
18147;DHT22;9199;48.832;9.182;2023-07-20T00:01:48;20.30;79.50
18147;DHT22;9199;48.832;9.182;2023-07-20T00:04:14;20.30;80.10
18147;DHT22;9199;48.832;9.182;2023-07-20T00:06:43;20.20;80.30
18147;DHT22;9199;48.832;9.182;2023-07-20T00:09:09;20.10;80.70
18147;DHT22;9199;48.832;9.182;2023-07-20T00:11:37;20.10;81.30
18147;DHT22;9199;48.832;9.182;2023-07-20T00:14:04;20.00;82.00
18147;DHT22;9199;48.832;9.182;2023-07-20T00:16:31;20.00;81.50
18147;DHT22;9199;48.832;9.182;2023-07-20T00:18:58;19.90;80.90
18147;DHT22;9199;48.832;9.182;2023-07-20T00:21:25;19.90;79.70
18147;DHT22;9199;48.832;9.182;2023-07-20T00:23:53;20.00;79.10
18147;DHT22;9199;48.832;9.182;2023-07-20T00:26:20;19.90;78.60
18147;DHT22;9199;48.832;9.182;2023-07-20T00:28:48;19.90;78.10
18147;DHT22;9199;48.832;9.182;2023-07-20T00:31:15;19.90;77.90
18147;DHT22;9199;48.832;9.182;2023-07-20T00:33:42;19.80;77.60
18147;DHT22;9199;48.832;9.182;2023-07-20T00:36:08;19.80;77.70
18147;DHT22;9199;48.832;9.182;2023-07-20T00:38:35;19.70;77.30
18147;DHT22;9199;48.832;9.182;2023-07-20T00:41:03;19.70;76.90
18147;DHT22;9199;48.832;9.182;2023-07-20T00:43:30;19.70;76.60
18147;DHT22;9199;48.832;9.182;2023-07-20T00:45:57;19.70;76.80
18147;DHT22;9199;48.832;9.182;2023-07-20T00:48:23;19.60;76.90
18147;DHT22;9199;48.832;9.182;2023-07-20T00:50:51;19.60;77.40
18147;DHT22;9199;48.832;9.182;2023-07-20T00:53:17;19.50;77.20
18147;DHT22;9199;48.832;9.182;2023-07-20T00:55:44;19.50;77.60
18147;DHT22;9199;48.832;9.182;2023-07-20T00:58:12;19.40;77.80
18147;DHT22;9199;48.832;9.182;2023-07-20T01:00:39;19.30;78.20
18147;DHT22;9199;48.832;9.182;2023-07-20T01:03:06;19.20;78.30
18147;DHT22;9199;48.832;9.182;2023-07-20T01:05:38;19.20;78.40
18147;DHT22;9199;48.832;9.182;2023-07-20T01:08:11;19.20;78.60
18147;DHT22;9199;48.832;9.182;2023-07-20T01:10:40;19.20;78.30
18147;DHT22;9199;48.832;9.182;2023-07-20T01:13:10;19.20;78.60
18147;DHT22;9199;48.832;9.182;2023-07-20T01:15:38;19.20;78.70
18147;DHT22;9199;48.832;9.182;2023-07-20T01:18:05;19.10;78.70
18147;DHT22;9199;48.832;9.182;2023-07-20T01:20:33;19.10;78.80
18147;DHT22;9199;48.832;9.182;2023-07-20T01:23:27;19.10;79.10
18147;DHT22;9199;48.832;9.182;2023-07-20T01:26:08;19.00;79.20
18147;DHT22;9199;48.832;9.182;2023-07-20T01:29:17;19.00;80.30
18147;DHT22;9199;48.832;9.182;2023-07-20T01:31:51;18.90;80.60
18147;DHT22;9199;48.832;9.182;2023-07-20T01:34:19;18.80;80.50
18147;DHT22;9199;48.832;9.182;2023-07-20T01:36:48;18.80;81.10
18147;DHT22;9199;48.832;9.182;2023-07-20T01:39:17;18.70;81.50
18147;DHT22;9199;48.832;9.182;2023-07-20T01:41:45;18.60;83.00
18147;DHT22;9199;48.832;9.182;2023-07-20T01:44:12;18.50;82.90
18147;DHT22;9199;48.832;9.182;2023-07-20T01:46:39;18.50;83.50
18147;DHT22;9199;48.832;9.182;2023-07-20T01:49:07;18.40;83.60
18147;DHT22;9199;48.832;9.182;2023-07-20T01:51:34;18.40;84.30
18147;DHT22;9199;48.832;9.182;2023-07-20T01:54:02;18.30;84.50
18147;DHT22;9199;48.832;9.182;2023-07-20T01:56:28;18.30;85.20
18147;DHT22;9199;48.832;9.182;2023-07-20T01:58:55;18.20;85.30
18147;DHT22;9199;48.832;9.182;2023-07-20T02:01:22;18.20;85.60
18147;DHT22;9199;48.832;9.182;2023-07-20T02:03:49;18.20;85.70
18147;DHT22;9199;48.832;9.182;2023-07-20T02:06:17;18.20;86.20
18147;DHT22;9199;48.832;9.182;2023-07-20T02:08:43;18.10;86.70
18147;DHT22;9199;48.832;9.182;2023-07-20T02:11:10;18.10;87.10
18147;DHT22;9199;48.832;9.182;2023-07-20T02:13:37;18.00;87.60
18147;DHT22;9199;48.832;9.182;2023-07-20T02:16:04;17.90;88.10
18147;DHT22;9199;48.832;9.182;2023-07-20T02:18:31;17.90;89.10
18147;DHT22;9199;48.832;9.182;2023-07-20T02:20:58;17.90;89.20
18147;DHT22;9199;48.832;9.182;2023-07-20T02:23:26;17.90;89.50
18147;DHT22;9199;48.832;9.182;2023-07-20T02:25:53;17.80;90.10
18147;DHT22;9199;48.832;9.182;2023-07-20T02:28:20;17.80;90.10
18147;DHT22;9199;48.832;9.182;2023-07-20T02:30:46;17.80;90.40
18147;DHT22;9199;48.832;9.182;2023-07-20T02:33:15;17.70;90.60
18147;DHT22;9199;48.832;9.182;2023-07-20T02:35:42;17.70;90.90
18147;DHT22;9199;48.832;9.182;2023-07-20T02:38:08;17.70;91.20
18147;DHT22;9199;48.832;9.182;2023-07-20T02:40:36;17.60;91.30
18147;DHT22;9199;48.832;9.182;2023-07-20T02:43:03;17.60;91.60
18147;DHT22;9199;48.832;9.182;2023-07-20T02:45:30;17.60;92.00
18147;DHT22;9199;48.832;9.182;2023-07-20T02:47:57;17.50;92.30
18147;DHT22;9199;48.832;9.182;2023-07-20T02:50:23;17.50;92.40
18147;DHT22;9199;48.832;9.182;2023-07-20T02:52:50;17.50;92.90
18147;DHT22;9199;48.832;9.182;2023-07-20T02:55:17;17.50;93.10
18147;DHT22;9199;48.832;9.182;2023-07-20T02:57:46;17.40;93.40
18147;DHT22;9199;48.832;9.182;2023-07-20T03:00:13;17.40;93.80
18147;DHT22;9199;48.832;9.182;2023-07-20T03:02:41;17.40;94.10
18147;DHT22;9199;48.832;9.182;2023-07-20T03:05:09;17.40;94.50
18147;DHT22;9199;48.832;9.182;2023-07-20T03:07:35;17.40;94.40
18147;DHT22;9199;48.832;9.182;2023-07-20T03:10:03;17.40;94.80
18147;DHT22;9199;48.832;9.182;2023-07-20T03:12:32;17.30;95.20
18147;DHT22;9199;48.832;9.182;2023-07-20T03:15:01;17.30;95.20
18147;DHT22;9199;48.832;9.182;2023-07-20T03:17:28;17.30;95.80
18147;DHT22;9199;48.832;9.182;2023-07-20T03:19:54;17.30;95.90
18147;DHT22;9199;48.832;9.182;2023-07-20T03:22:21;17.30;96.00
18147;DHT22;9199;48.832;9.182;2023-07-20T03:24:48;17.20;96.10
18147;DHT22;9199;48.832;9.182;2023-07-20T03:27:14;17.20;96.60
18147;DHT22;9199;48.832;9.182;2023-07-20T03:29:41;17.10;97.00
18147;DHT22;9199;48.832;9.182;2023-07-20T03:32:09;17.10;97.00
18147;DHT22;9199;48.832;9.182;2023-07-20T03:34:36;17.10;97.20
18147;DHT22;9199;48.832;9.182;2023-07-20T03:37:03;17.10;97.90
18147;DHT22;9199;48.832;9.182;2023-07-20T03:39:30;17.10;97.60
18147;DHT22;9199;48.832;9.182;2023-07-20T03:41:57;17.10;97.90
18147;DHT22;9199;48.832;9.182;2023-07-20T03:44:24;17.10;97.90
18147;DHT22;9199;48.832;9.182;2023-07-20T03:46:51;17.10;98.10
18147;DHT22;9199;48.832;9.182;2023-07-20T03:49:19;17.10;98.40
18147;DHT22;9199;48.832;9.182;2023-07-20T03:51:46;17.10;98.40
18147;DHT22;9199;48.832;9.182;2023-07-20T03:54:12;17.10;98.30
18147;DHT22;9199;48.832;9.182;2023-07-20T03:56:39;17.10;98.80
18147;DHT22;9199;48.832;9.182;2023-07-20T03:59:06;17.10;98.70
18147;DHT22;9199;48.832;9.182;2023-07-20T04:01:32;17.10;98.90
18147;DHT22;9199;48.832;9.182;2023-07-20T04:04:04;17.00;98.90
18147;DHT22;9199;48.832;9.182;2023-07-20T04:06:32;17.00;99.50
18147;DHT22;9199;48.832;9.182;2023-07-20T04:08:59;17.00;99.30
18147;DHT22;9199;48.832;9.182;2023-07-20T04:11:25;17.00;99.50
18147;DHT22;9199;48.832;9.182;2023-07-20T04:13:52;17.00;99.90
18147;DHT22;9199;48.832;9.182;2023-07-20T04:16:19;17.20;99.90
18147;DHT22;9199;48.832;9.182;2023-07-20T04:18:46;17.40;99.70
18147;DHT22;9199;48.832;9.182;2023-07-20T04:21:13;17.60;99.50
18147;DHT22;9199;48.832;9.182;2023-07-20T04:23:41;17.70;99.30
18147;DHT22;9199;48.832;9.182;2023-07-20T04:26:08;17.90;98.90
18147;DHT22;9199;48.832;9.182;2023-07-20T04:28:35;18.00;98.40
18147;DHT22;9199;48.832;9.182;2023-07-20T04:31:11;18.10;98.30
18147;DHT22;9199;48.832;9.182;2023-07-20T04:33:38;18.20;98.40
18147;DHT22;9199;48.832;9.182;2023-07-20T04:36:05;18.20;98.30
18147;DHT22;9199;48.832;9.182;2023-07-20T04:38:32;18.30;98.30
18147;DHT22;9199;48.832;9.182;2023-07-20T04:41:00;18.40;98.40
18147;DHT22;9199;48.832;9.182;2023-07-20T04:43:29;18.40;98.10
18147;DHT22;9199;48.832;9.182;2023-07-20T04:45:55;18.40;98.00
18147;DHT22;9199;48.832;9.182;2023-07-20T04:48:22;18.50;98.50
18147;DHT22;9199;48.832;9.182;2023-07-20T04:50:49;18.40;98.50
18147;DHT22;9199;48.832;9.182;2023-07-20T04:53:15;18.40;98.30
18147;DHT22;9199;48.832;9.182;2023-07-20T04:55:48;18.40;98.50
18147;DHT22;9199;48.832;9.182;2023-07-20T04:58:18;18.30;98.70
18147;DHT22;9199;48.832;9.182;2023-07-20T05:00:45;18.40;98.80
18147;DHT22;9199;48.832;9.182;2023-07-20T05:03:12;18.50;98.40
18147;DHT22;9199;48.832;9.182;2023-07-20T05:05:39;18.50;98.10
18147;DHT22;9199;48.832;9.182;2023-07-20T05:08:05;18.50;98.40
18147;DHT22;9199;48.832;9.182;2023-07-20T05:10:32;18.60;98.70
18147;DHT22;9199;48.832;9.182;2023-07-20T05:12:59;18.70;98.50
18147;DHT22;9199;48.832;9.182;2023-07-20T05:15:27;18.80;98.20
18147;DHT22;9199;48.832;9.182;2023-07-20T05:17:54;18.90;98.10
18147;DHT22;9199;48.832;9.182;2023-07-20T05:20:21;18.90;98.30
18147;DHT22;9199;48.832;9.182;2023-07-20T05:22:48;19.00;98.80
18147;DHT22;9199;48.832;9.182;2023-07-20T05:25:15;19.10;98.30
18147;DHT22;9199;48.832;9.182;2023-07-20T05:27:44;19.30;98.20
18147;DHT22;9199;48.832;9.182;2023-07-20T05:30:11;19.40;97.70
18147;DHT22;9199;48.832;9.182;2023-07-20T05:32:39;19.50;97.90
18147;DHT22;9199;48.832;9.182;2023-07-20T05:35:07;19.50;97.40
18147;DHT22;9199;48.832;9.182;2023-07-20T05:37:36;19.50;96.90
18147;DHT22;9199;48.832;9.182;2023-07-20T05:40:04;19.50;96.80
18147;DHT22;9199;48.832;9.182;2023-07-20T05:42:31;19.60;97.10
18147;DHT22;9199;48.832;9.182;2023-07-20T05:44:58;19.60;96.70
18147;DHT22;9199;48.832;9.182;2023-07-20T05:47:25;19.70;96.40
18147;DHT22;9199;48.832;9.182;2023-07-20T05:49:53;19.70;96.40
18147;DHT22;9199;48.832;9.182;2023-07-20T05:52:19;19.80;96.80
18147;DHT22;9199;48.832;9.182;2023-07-20T05:54:46;19.90;95.90
18147;DHT22;9199;48.832;9.182;2023-07-20T05:57:13;19.90;95.80
18147;DHT22;9199;48.832;9.182;2023-07-20T05:59:40;20.00;96.50
18147;DHT22;9199;48.832;9.182;2023-07-20T06:02:09;20.20;95.60
18147;DHT22;9199;48.832;9.182;2023-07-20T06:04:36;20.30;95.20
18147;DHT22;9199;48.832;9.182;2023-07-20T06:07:04;20.30;94.70
18147;DHT22;9199;48.832;9.182;2023-07-20T06:09:33;20.40;94.50
18147;DHT22;9199;48.832;9.182;2023-07-20T06:11:59;20.40;94.30
18147;DHT22;9199;48.832;9.182;2023-07-20T06:14:26;20.60;95.00
18147;DHT22;9199;48.832;9.182;2023-07-20T06:16:53;20.70;94.20
18147;DHT22;9199;48.832;9.182;2023-07-20T06:19:19;20.80;94.10
18147;DHT22;9199;48.832;9.182;2023-07-20T06:21:48;20.90;93.60
18147;DHT22;9199;48.832;9.182;2023-07-20T06:24:16;20.90;94.00
18147;DHT22;9199;48.832;9.182;2023-07-20T06:26:43;21.10;93.40
18147;DHT22;9199;48.832;9.182;2023-07-20T06:29:09;21.10;94.00
18147;DHT22;9199;48.832;9.182;2023-07-20T06:31:37;21.30;93.40
18147;DHT22;9199;48.832;9.182;2023-07-20T06:34:04;21.10;93.40
18147;DHT22;9199;48.832;9.182;2023-07-20T06:36:30;20.90;93.80
18147;DHT22;9199;48.832;9.182;2023-07-20T06:38:57;21.00;94.10
18147;DHT22;9199;48.832;9.182;2023-07-20T06:41:25;21.10;94.00
18147;DHT22;9199;48.832;9.182;2023-07-20T06:43:52;21.10;94.10
18147;DHT22;9199;48.832;9.182;2023-07-20T06:46:23;21.20;93.70
18147;DHT22;9199;48.832;9.182;2023-07-20T06:48:50;21.30;93.60
18147;DHT22;9199;48.832;9.182;2023-07-20T06:51:17;21.30;93.40
18147;DHT22;9199;48.832;9.182;2023-07-20T06:53:44;21.20;93.80
18147;DHT22;9199;48.832;9.182;2023-07-20T06:56:11;21.40;93.60
18147;DHT22;9199;48.832;9.182;2023-07-20T06:58:39;21.60;93.70
18147;DHT22;9199;48.832;9.182;2023-07-20T07:01:07;21.80;93.00
18147;DHT22;9199;48.832;9.182;2023-07-20T07:03:35;21.90;92.80
18147;DHT22;9199;48.832;9.182;2023-07-20T07:06:02;22.00;92.50
18147;DHT22;9199;48.832;9.182;2023-07-20T07:08:29;22.10;92.60
18147;DHT22;9199;48.832;9.182;2023-07-20T07:10:55;22.20;92.60
18147;DHT22;9199;48.832;9.182;2023-07-20T07:13:22;22.30;92.10
18147;DHT22;9199;48.832;9.182;2023-07-20T07:15:51;22.30;91.60
18147;DHT22;9199;48.832;9.182;2023-07-20T07:18:18;22.40;91.90
18147;DHT22;9199;48.832;9.182;2023-07-20T07:20:50;22.50;90.90
18147;DHT22;9199;48.832;9.182;2023-07-20T07:23:17;22.50;91.20
18147;DHT22;9199;48.832;9.182;2023-07-20T07:25:44;22.40;91.10
18147;DHT22;9199;48.832;9.182;2023-07-20T07:28:11;22.40;91.10
18147;DHT22;9199;48.832;9.182;2023-07-20T07:30:38;22.30;91.10
18147;DHT22;9199;48.832;9.182;2023-07-20T07:33:06;22.40;90.70
18147;DHT22;9199;48.832;9.182;2023-07-20T07:35:33;22.60;90.70
18147;DHT22;9199;48.832;9.182;2023-07-20T07:37:59;22.80;90.10
18147;DHT22;9199;48.832;9.182;2023-07-20T07:40:26;22.90;90.10
18147;DHT22;9199;48.832;9.182;2023-07-20T07:42:53;22.90;88.90
18147;DHT22;9199;48.832;9.182;2023-07-20T07:45:19;22.90;88.30
18147;DHT22;9199;48.832;9.182;2023-07-20T07:47:46;23.00;90.00
18147;DHT22;9199;48.832;9.182;2023-07-20T07:50:14;23.30;87.30
18147;DHT22;9199;48.832;9.182;2023-07-20T07:52:41;23.60;89.50
18147;DHT22;9199;48.832;9.182;2023-07-20T07:55:07;23.80;86.70
18147;DHT22;9199;48.832;9.182;2023-07-20T07:57:34;23.90;84.60
18147;DHT22;9199;48.832;9.182;2023-07-20T08:00:01;24.00;84.10
18147;DHT22;9199;48.832;9.182;2023-07-20T08:02:29;24.10;84.60
18147;DHT22;9199;48.832;9.182;2023-07-20T08:04:55;24.20;83.50
18147;DHT22;9199;48.832;9.182;2023-07-20T08:07:24;24.30;81.10
18147;DHT22;9199;48.832;9.182;2023-07-20T08:09:50;24.20;81.80
18147;DHT22;9199;48.832;9.182;2023-07-20T08:12:17;24.00;82.00
18147;DHT22;9199;48.832;9.182;2023-07-20T08:14:45;23.90;80.50
18147;DHT22;9199;48.832;9.182;2023-07-20T08:17:12;23.80;81.50
18147;DHT22;9199;48.832;9.182;2023-07-20T08:19:39;23.70;82.00
18147;DHT22;9199;48.832;9.182;2023-07-20T08:22:07;23.30;83.70
18147;DHT22;9199;48.832;9.182;2023-07-20T08:24:38;23.00;84.30
18147;DHT22;9199;48.832;9.182;2023-07-20T08:27:05;23.00;86.50
18147;DHT22;9199;48.832;9.182;2023-07-20T08:29:32;23.20;86.10
18147;DHT22;9199;48.832;9.182;2023-07-20T08:31:59;23.60;83.50
18147;DHT22;9199;48.832;9.182;2023-07-20T08:34:25;24.00;82.70
18147;DHT22;9199;48.832;9.182;2023-07-20T08:36:52;23.90;80.30
18147;DHT22;9199;48.832;9.182;2023-07-20T08:39:19;23.90;81.00
18147;DHT22;9199;48.832;9.182;2023-07-20T08:41:49;24.00;81.40
18147;DHT22;9199;48.832;9.182;2023-07-20T08:44:15;24.30;79.00
18147;DHT22;9199;48.832;9.182;2023-07-20T08:46:43;24.20;76.00
18147;DHT22;9199;48.832;9.182;2023-07-20T08:49:11;24.10;77.50
18147;DHT22;9199;48.832;9.182;2023-07-20T08:51:39;24.30;78.80
18147;DHT22;9199;48.832;9.182;2023-07-20T08:54:08;24.70;76.40
18147;DHT22;9199;48.832;9.182;2023-07-20T08:56:36;24.50;76.40
18147;DHT22;9199;48.832;9.182;2023-07-20T08:59:06;23.90;77.20
18147;DHT22;9199;48.832;9.182;2023-07-20T09:01:35;23.60;78.10
18147;DHT22;9199;48.832;9.182;2023-07-20T09:04:03;24.10;77.60
18147;DHT22;9199;48.832;9.182;2023-07-20T09:06:30;24.70;75.00
18147;DHT22;9199;48.832;9.182;2023-07-20T09:08:56;25.20;73.70
18147;DHT22;9199;48.832;9.182;2023-07-20T09:11:23;25.50;73.20
18147;DHT22;9199;48.832;9.182;2023-07-20T09:14:02;25.80;70.60
18147;DHT22;9199;48.832;9.182;2023-07-20T09:16:30;25.60;73.20
18147;DHT22;9199;48.832;9.182;2023-07-20T09:18:58;25.30;74.70
18147;DHT22;9199;48.832;9.182;2023-07-20T09:21:29;24.90;75.70
18147;DHT22;9199;48.832;9.182;2023-07-20T09:23:56;24.60;76.50
18147;DHT22;9199;48.832;9.182;2023-07-20T09:26:23;24.40;76.20
18147;DHT22;9199;48.832;9.182;2023-07-20T09:28:52;24.00;75.50
18147;DHT22;9199;48.832;9.182;2023-07-20T09:31:21;23.80;75.70
18147;DHT22;9199;48.832;9.182;2023-07-20T09:33:51;23.90;74.50
18147;DHT22;9199;48.832;9.182;2023-07-20T09:36:18;24.10;73.60
18147;DHT22;9199;48.832;9.182;2023-07-20T09:38:45;24.70;73.30
18147;DHT22;9199;48.832;9.182;2023-07-20T09:41:13;25.60;72.90
18147;DHT22;9199;48.832;9.182;2023-07-20T09:43:41;26.30;69.80
18147;DHT22;9199;48.832;9.182;2023-07-20T09:46:07;26.60;66.40
18147;DHT22;9199;48.832;9.182;2023-07-20T09:48:34;26.20;66.00
18147;DHT22;9199;48.832;9.182;2023-07-20T09:51:03;26.50;66.10
18147;DHT22;9199;48.832;9.182;2023-07-20T09:53:33;26.90;64.90
18147;DHT22;9199;48.832;9.182;2023-07-20T09:56:00;27.40;60.20
18147;DHT22;9199;48.832;9.182;2023-07-20T09:58:27;27.30;59.30
18147;DHT22;9199;48.832;9.182;2023-07-20T10:00:57;27.50;59.60
18147;DHT22;9199;48.832;9.182;2023-07-20T10:03:28;27.90;58.40
18147;DHT22;9199;48.832;9.182;2023-07-20T10:05:57;28.20;58.50
18147;DHT22;9199;48.832;9.182;2023-07-20T10:08:29;29.00;56.70
18147;DHT22;9199;48.832;9.182;2023-07-20T10:10:57;29.50;55.20
18147;DHT22;9199;48.832;9.182;2023-07-20T10:13:27;29.30;54.10
18147;DHT22;9199;48.832;9.182;2023-07-20T10:15:54;28.20;53.20
18147;DHT22;9199;48.832;9.182;2023-07-20T10:18:28;27.50;54.50
18147;DHT22;9199;48.832;9.182;2023-07-20T10:20:56;28.10;53.00
18147;DHT22;9199;48.832;9.182;2023-07-20T10:23:29;28.30;54.30
18147;DHT22;9199;48.832;9.182;2023-07-20T10:25:57;29.00;54.00
18147;DHT22;9199;48.832;9.182;2023-07-20T10:28:24;30.10;51.50
18147;DHT22;9199;48.832;9.182;2023-07-20T10:30:51;30.00;50.90
18147;DHT22;9199;48.832;9.182;2023-07-20T10:33:18;30.40;50.70
18147;DHT22;9199;48.832;9.182;2023-07-20T10:35:52;31.00;49.20
18147;DHT22;9199;48.832;9.182;2023-07-20T10:38:19;30.90;47.10
18147;DHT22;9199;48.832;9.182;2023-07-20T10:40:55;31.30;47.60
18147;DHT22;9199;48.832;9.182;2023-07-20T10:43:22;31.40;45.50
18147;DHT22;9199;48.832;9.182;2023-07-20T10:45:50;31.20;45.00
18147;DHT22;9199;48.832;9.182;2023-07-20T10:48:18;30.60;47.10
18147;DHT22;9199;48.832;9.182;2023-07-20T10:50:46;30.80;45.00
18147;DHT22;9199;48.832;9.182;2023-07-20T10:53:14;30.70;46.10
18147;DHT22;9199;48.832;9.182;2023-07-20T10:55:41;30.60;45.60
18147;DHT22;9199;48.832;9.182;2023-07-20T10:58:12;30.90;44.70
18147;DHT22;9199;48.832;9.182;2023-07-20T11:00:58;30.60;44.00
18147;DHT22;9199;48.832;9.182;2023-07-20T11:03:27;30.20;46.40
18147;DHT22;9199;48.832;9.182;2023-07-20T11:05:54;30.40;46.30
18147;DHT22;9199;48.832;9.182;2023-07-20T11:08:39;30.70;45.30
18147;DHT22;9199;48.832;9.182;2023-07-20T11:11:23;30.70;45.40
18147;DHT22;9199;48.832;9.182;2023-07-20T11:13:58;30.70;44.50
18147;DHT22;9199;48.832;9.182;2023-07-20T11:16:33;31.20;42.80
18147;DHT22;9199;48.832;9.182;2023-07-20T11:19:01;31.60;44.30
18147;DHT22;9199;48.832;9.182;2023-07-20T11:21:28;31.70;42.10
18147;DHT22;9199;48.832;9.182;2023-07-20T11:23:55;32.20;41.90
18147;DHT22;9199;48.832;9.182;2023-07-20T11:26:22;32.40;40.60
18147;DHT22;9199;48.832;9.182;2023-07-20T11:28:49;32.00;40.60
18147;DHT22;9199;48.832;9.182;2023-07-20T11:31:18;31.50;43.10
18147;DHT22;9199;48.832;9.182;2023-07-20T11:33:45;32.00;41.80
18147;DHT22;9199;48.832;9.182;2023-07-20T11:36:12;32.10;40.50
18147;DHT22;9199;48.832;9.182;2023-07-20T11:38:41;32.40;40.60
18147;DHT22;9199;48.832;9.182;2023-07-20T11:41:09;32.70;39.30
18147;DHT22;9199;48.832;9.182;2023-07-20T11:43:36;33.00;38.20
18147;DHT22;9199;48.832;9.182;2023-07-20T11:46:05;32.80;37.40
18147;DHT22;9199;48.832;9.182;2023-07-20T11:48:33;32.50;39.10
18147;DHT22;9199;48.832;9.182;2023-07-20T11:50:59;32.10;39.10
18147;DHT22;9199;48.832;9.182;2023-07-20T11:53:26;32.30;40.30
18147;DHT22;9199;48.832;9.182;2023-07-20T11:55:53;32.50;39.30
18147;DHT22;9199;48.832;9.182;2023-07-20T11:58:20;32.70;39.10
18147;DHT22;9199;48.832;9.182;2023-07-20T12:00:47;33.10;38.00
18147;DHT22;9199;48.832;9.182;2023-07-20T12:03:14;33.70;38.00
18147;DHT22;9199;48.832;9.182;2023-07-20T12:05:42;33.80;35.90
18147;DHT22;9199;48.832;9.182;2023-07-20T12:08:10;33.70;36.30
18147;DHT22;9199;48.832;9.182;2023-07-20T12:10:39;33.50;36.90
18147;DHT22;9199;48.832;9.182;2023-07-20T12:13:10;33.30;35.80
18147;DHT22;9199;48.832;9.182;2023-07-20T12:15:37;33.00;36.70
18147;DHT22;9199;48.832;9.182;2023-07-20T12:18:05;33.20;36.40
18147;DHT22;9199;48.832;9.182;2023-07-20T12:20:32;33.30;37.00
18147;DHT22;9199;48.832;9.182;2023-07-20T12:23:03;32.40;38.40
18147;DHT22;9199;48.832;9.182;2023-07-20T12:25:40;32.10;39.90
18147;DHT22;9199;48.832;9.182;2023-07-20T12:28:08;32.40;38.10
18147;DHT22;9199;48.832;9.182;2023-07-20T12:30:36;33.00;36.20
18147;DHT22;9199;48.832;9.182;2023-07-20T12:33:03;32.30;36.20
18147;DHT22;9199;48.832;9.182;2023-07-20T12:35:30;32.40;37.40
18147;DHT22;9199;48.832;9.182;2023-07-20T12:37:57;33.00;37.40
18147;DHT22;9199;48.832;9.182;2023-07-20T12:40:26;33.90;35.50
18147;DHT22;9199;48.832;9.182;2023-07-20T12:42:52;34.10;35.50
18147;DHT22;9199;48.832;9.182;2023-07-20T12:45:19;34.50;35.70
18147;DHT22;9199;48.832;9.182;2023-07-20T12:47:46;34.40;34.20
18147;DHT22;9199;48.832;9.182;2023-07-20T12:50:13;34.70;35.10
18147;DHT22;9199;48.832;9.182;2023-07-20T12:52:40;34.90;34.10
18147;DHT22;9199;48.832;9.182;2023-07-20T12:55:09;34.70;32.60
18147;DHT22;9199;48.832;9.182;2023-07-20T12:57:38;34.90;33.80
18147;DHT22;9199;48.832;9.182;2023-07-20T13:00:06;35.50;32.90
18147;DHT22;9199;48.832;9.182;2023-07-20T13:02:34;36.30;31.70
18147;DHT22;9199;48.832;9.182;2023-07-20T13:05:01;36.00;31.10
18147;DHT22;9199;48.832;9.182;2023-07-20T13:07:33;34.90;31.50
18147;DHT22;9199;48.832;9.182;2023-07-20T13:10:01;34.30;34.80
18147;DHT22;9199;48.832;9.182;2023-07-20T13:12:29;34.60;32.40
18147;DHT22;9199;48.832;9.182;2023-07-20T13:14:58;35.20;32.20
18147;DHT22;9199;48.832;9.182;2023-07-20T13:17:26;35.30;32.40
18147;DHT22;9199;48.832;9.182;2023-07-20T13:19:53;35.40;31.90
18147;DHT22;9199;48.832;9.182;2023-07-20T13:22:19;35.60;32.20
18147;DHT22;9199;48.832;9.182;2023-07-20T13:24:46;36.10;31.90
18147;DHT22;9199;48.832;9.182;2023-07-20T13:27:14;36.20;30.20
18147;DHT22;9199;48.832;9.182;2023-07-20T13:29:41;36.20;30.80
18147;DHT22;9199;48.832;9.182;2023-07-20T13:32:10;36.10;29.50
18147;DHT22;9199;48.832;9.182;2023-07-20T13:34:37;35.60;30.40
18147;DHT22;9199;48.832;9.182;2023-07-20T13:37:04;34.80;31.50
18147;DHT22;9199;48.832;9.182;2023-07-20T13:39:31;34.50;33.10
18147;DHT22;9199;48.832;9.182;2023-07-20T13:41:58;34.30;32.20
18147;DHT22;9199;48.832;9.182;2023-07-20T13:44:26;33.90;32.80
18147;DHT22;9199;48.832;9.182;2023-07-20T13:46:53;34.70;32.50
18147;DHT22;9199;48.832;9.182;2023-07-20T13:49:22;34.50;30.80
18147;DHT22;9199;48.832;9.182;2023-07-20T13:51:49;33.60;31.60
18147;DHT22;9199;48.832;9.182;2023-07-20T13:54:16;33.30;32.50
18147;DHT22;9199;48.832;9.182;2023-07-20T13:56:43;33.20;33.90
18147;DHT22;9199;48.832;9.182;2023-07-20T13:59:09;33.70;33.30
18147;DHT22;9199;48.832;9.182;2023-07-20T14:01:36;34.00;31.50
18147;DHT22;9199;48.832;9.182;2023-07-20T14:04:03;34.10;32.20
18147;DHT22;9199;48.832;9.182;2023-07-20T14:06:32;34.20;32.60
18147;DHT22;9199;48.832;9.182;2023-07-20T14:08:59;34.30;31.90
18147;DHT22;9199;48.832;9.182;2023-07-20T14:11:26;34.60;32.40
18147;DHT22;9199;48.832;9.182;2023-07-20T14:13:53;35.30;31.60
18147;DHT22;9199;48.832;9.182;2023-07-20T14:16:20;35.50;30.20
18147;DHT22;9199;48.832;9.182;2023-07-20T14:18:47;34.80;30.80
18147;DHT22;9199;48.832;9.182;2023-07-20T14:21:14;34.20;31.70
18147;DHT22;9199;48.832;9.182;2023-07-20T14:23:44;34.40;30.80
18147;DHT22;9199;48.832;9.182;2023-07-20T14:26:11;34.90;29.90
18147;DHT22;9199;48.832;9.182;2023-07-20T14:28:38;35.00;30.50
18147;DHT22;9199;48.832;9.182;2023-07-20T14:31:05;35.10;30.50
18147;DHT22;9199;48.832;9.182;2023-07-20T14:33:31;35.60;29.50
18147;DHT22;9199;48.832;9.182;2023-07-20T14:35:58;36.10;29.80
18147;DHT22;9199;48.832;9.182;2023-07-20T14:38:27;36.20;28.70
18147;DHT22;9199;48.832;9.182;2023-07-20T14:40:55;36.10;29.50
18147;DHT22;9199;48.832;9.182;2023-07-20T14:43:21;36.00;28.80
18147;DHT22;9199;48.832;9.182;2023-07-20T14:45:48;36.20;29.20
18147;DHT22;9199;48.832;9.182;2023-07-20T14:48:15;36.20;28.80
18147;DHT22;9199;48.832;9.182;2023-07-20T14:50:42;36.60;29.30
18147;DHT22;9199;48.832;9.182;2023-07-20T14:53:10;36.40;28.40
18147;DHT22;9199;48.832;9.182;2023-07-20T14:55:37;36.10;28.40
18147;DHT22;9199;48.832;9.182;2023-07-20T14:58:05;35.80;28.20
18147;DHT22;9199;48.832;9.182;2023-07-20T15:00:32;35.50;28.40
18147;DHT22;9199;48.832;9.182;2023-07-20T15:02:59;34.50;29.30
18147;DHT22;9199;48.832;9.182;2023-07-20T15:05:25;34.00;29.50
18147;DHT22;9199;48.832;9.182;2023-07-20T15:07:53;33.80;30.50
18147;DHT22;9199;48.832;9.182;2023-07-20T15:10:20;34.10;30.40
18147;DHT22;9199;48.832;9.182;2023-07-20T15:12:47;34.10;30.20
18147;DHT22;9199;48.832;9.182;2023-07-20T15:15:15;33.90;30.00
18147;DHT22;9199;48.832;9.182;2023-07-20T15:17:43;33.30;30.60
18147;DHT22;9199;48.832;9.182;2023-07-20T15:20:12;33.20;31.40
18147;DHT22;9199;48.832;9.182;2023-07-20T15:22:40;33.00;30.80
18147;DHT22;9199;48.832;9.182;2023-07-20T15:25:08;32.70;31.40
18147;DHT22;9199;48.832;9.182;2023-07-20T15:27:36;32.40;31.10
18147;DHT22;9199;48.832;9.182;2023-07-20T15:30:03;32.20;31.70
18147;DHT22;9199;48.832;9.182;2023-07-20T15:32:31;31.90;31.80
18147;DHT22;9199;48.832;9.182;2023-07-20T15:34:59;31.50;33.40
18147;DHT22;9199;48.832;9.182;2023-07-20T15:37:26;31.30;33.90
18147;DHT22;9199;48.832;9.182;2023-07-20T15:39:53;31.00;33.30
18147;DHT22;9199;48.832;9.182;2023-07-20T15:42:19;30.60;33.70
18147;DHT22;9199;48.832;9.182;2023-07-20T15:44:47;30.10;35.00
18147;DHT22;9199;48.832;9.182;2023-07-20T15:47:14;29.80;34.80
18147;DHT22;9199;48.832;9.182;2023-07-20T15:49:43;29.20;35.90